createdAt,value
2022-10-05T00:01:45.123Z,13.51
2022-10-05T00:04:17.053Z,13.60
2022-10-05T00:06:46.230Z,13.60
2022-10-05T00:09:17.656Z,13.60
2022-10-05T00:11:45.279Z,13.59
2022-10-05T00:14:19.228Z,13.56
2022-10-05T00:16:46.824Z,13.61
2022-10-05T00:19:20.727Z,13.67
2022-10-05T00:21:48.109Z,13.66
2022-10-05T00:24:18.980Z,13.70
2022-10-05T00:26:46.580Z,13.73
2022-10-05T00:29:21.521Z,13.72
2022-10-05T00:31:49.858Z,13.76
2022-10-05T00:34:17.891Z,13.79
2022-10-05T00:36:45.883Z,13.74
2022-10-05T00:39:13.391Z,13.73
2022-10-05T00:41:59.938Z,13.71
2022-10-05T00:44:41.754Z,13.72
2022-10-05T00:47:25.746Z,13.76
2022-10-05T00:50:14.266Z,13.71
2022-10-05T00:52:50.118Z,13.74
2022-10-05T00:55:27.550Z,13.70
2022-10-05T00:58:07.082Z,13.72
2022-10-05T01:00:46.924Z,13.78
2022-10-05T01:03:18.713Z,13.76
2022-10-05T01:05:56.916Z,13.76
2022-10-05T01:08:36.833Z,13.90
2022-10-05T01:11:09.357Z,13.76
2022-10-05T01:13:44.984Z,13.82
2022-10-05T01:16:17.274Z,13.76
2022-10-05T01:18:52.077Z,13.80
2022-10-05T01:21:21.540Z,13.81
2022-10-05T01:24:18.215Z,13.79
2022-10-05T01:27:15.647Z,13.78
2022-10-05T01:29:49.550Z,13.86
2022-10-05T01:32:25.081Z,13.84
2022-10-05T01:34:59.778Z,13.76
2022-10-05T01:37:33.396Z,13.69
2022-10-05T01:40:08.193Z,13.72
2022-10-05T01:42:48.490Z,13.72
2022-10-05T01:45:28.160Z,13.65
2022-10-05T01:48:07.156Z,13.73
2022-10-05T01:50:47.161Z,13.73
2022-10-05T01:53:21.554Z,13.74
2022-10-05T01:55:56.377Z,13.75
2022-10-05T01:58:33.755Z,13.74
2022-10-05T02:01:07.342Z,13.72
2022-10-05T02:07:45.707Z,13.67
2022-10-05T02:10:20.383Z,13.77
2022-10-05T02:12:51.170Z,13.73
2022-10-05T02:15:25.229Z,13.73
2022-10-05T02:17:58.952Z,13.71
2022-10-05T02:20:30.384Z,13.68
2022-10-05T02:23:05.612Z,13.72
2022-10-05T02:25:36.611Z,13.65
2022-10-05T02:28:08.174Z,13.72
2022-10-05T02:30:53.885Z,13.70
2022-10-05T02:33:27.749Z,13.68
2022-10-05T02:36:00.244Z,13.67
2022-10-05T02:38:36.550Z,13.75
2022-10-05T02:41:13.125Z,13.72
2022-10-05T02:43:49.596Z,13.69
2022-10-05T02:46:27.318Z,13.65
2022-10-05T02:49:10.038Z,13.67
2022-10-05T02:51:45.433Z,13.68
2022-10-05T02:54:22.614Z,13.70
2022-10-05T02:56:57.425Z,13.68
2022-10-05T02:59:34.464Z,13.75
2022-10-05T03:02:11.984Z,13.78
2022-10-05T03:04:51.892Z,13.82
2022-10-05T03:07:24.718Z,13.82
2022-10-05T03:10:01.609Z,13.82
2022-10-05T03:12:47.598Z,13.79
2022-10-05T03:15:48.608Z,13.82
2022-10-05T03:18:30.497Z,13.85
2022-10-05T03:21:09.248Z,13.78
2022-10-05T03:23:50.968Z,13.83
2022-10-05T03:26:32.126Z,13.82
2022-10-05T03:29:06.426Z,13.82
2022-10-05T03:31:43.586Z,13.80
2022-10-05T03:34:19.672Z,13.83
2022-10-05T03:36:55.971Z,13.87
2022-10-05T03:39:30.557Z,13.91
2022-10-05T03:42:07.795Z,13.86
2022-10-05T03:44:45.663Z,13.87
2022-10-05T03:47:24.655Z,13.92
2022-10-05T03:50:19.406Z,13.94
2022-10-05T03:52:55.771Z,13.99
2022-10-05T03:55:30.355Z,14.00
2022-10-05T03:58:07.626Z,14.01
2022-10-05T04:00:37.595Z,14.05
2022-10-05T04:03:14.824Z,14.00
2022-10-05T04:05:46.660Z,14.02
2022-10-05T04:08:21.534Z,14.04
2022-10-05T04:10:51.949Z,14.03
2022-10-05T04:13:29.152Z,14.04
2022-10-05T04:16:01.653Z,14.04
2022-10-05T04:18:34.694Z,14.02
2022-10-05T04:21:08.442Z,13.99
2022-10-05T04:23:47.911Z,13.91
2022-10-05T04:26:24.734Z,13.86
2022-10-05T04:28:57.323Z,13.71
2022-10-05T04:31:39.755Z,13.75
2022-10-05T04:34:17.501Z,13.72
2022-10-05T04:36:54.440Z,13.76
2022-10-05T04:39:34.891Z,13.80
2022-10-05T04:42:10.718Z,13.79
2022-10-05T04:45:05.242Z,13.77
2022-10-05T04:48:05.074Z,13.71
2022-10-05T04:50:45.326Z,13.67
2022-10-05T04:53:25.125Z,13.70
2022-10-05T04:56:01.111Z,13.65
2022-10-05T04:58:44.592Z,13.69
2022-10-05T05:01:30.183Z,13.74
2022-10-05T05:04:26.894Z,13.73
2022-10-05T05:07:03.652Z,13.65
2022-10-05T05:10:01.664Z,13.59
2022-10-05T05:12:41.266Z,13.54
2022-10-05T05:15:40.905Z,13.53
2022-10-05T05:18:37.748Z,13.64
2022-10-05T05:21:14.362Z,13.59
2022-10-05T05:23:50.057Z,13.59
2022-10-05T05:26:28.768Z,13.58
2022-10-05T05:29:08.171Z,13.57
2022-10-05T05:31:45.141Z,13.51
2022-10-05T05:34:28.013Z,13.52
2022-10-05T05:37:02.201Z,13.52
2022-10-05T05:39:38.701Z,13.55
2022-10-05T05:42:17.888Z,13.58
2022-10-05T05:44:51.500Z,13.63
2022-10-05T05:47:26.341Z,13.68
2022-10-05T05:50:07.449Z,13.68
2022-10-05T05:52:41.611Z,13.73
2022-10-05T05:55:17.698Z,13.73
2022-10-05T05:57:49.981Z,13.72
2022-10-05T06:00:21.874Z,13.67
2022-10-05T06:03:04.205Z,13.72
2022-10-05T06:05:38.143Z,13.75
2022-10-05T06:08:15.390Z,13.86
2022-10-05T06:10:48.751Z,13.88
2022-10-05T06:13:21.054Z,13.88
2022-10-05T06:15:54.155Z,13.88
2022-10-05T06:18:22.870Z,13.86
2022-10-05T06:20:59.162Z,13.89
2022-10-05T06:23:35.449Z,13.99
2022-10-05T06:26:14.622Z,14.07
2022-10-05T06:28:50.521Z,14.03
2022-10-05T06:31:30.435Z,14.11
2022-10-05T06:34:10.673Z,14.18
2022-10-05T06:36:43.928Z,14.20
2022-10-05T06:39:33.556Z,14.24
2022-10-05T06:42:15.194Z,14.25
2022-10-05T06:45:15.007Z,14.29
2022-10-05T06:48:05.043Z,14.30
2022-10-05T06:51:09.731Z,14.30
2022-10-05T06:53:54.217Z,14.33
2022-10-05T06:56:31.232Z,14.38
2022-10-05T06:59:05.953Z,14.41
2022-10-05T07:01:44.763Z,14.51
2022-10-05T07:04:43.759Z,14.41
2022-10-05T07:07:21.034Z,14.54
2022-10-05T07:10:00.130Z,14.57
2022-10-05T07:12:39.709Z,14.66
2022-10-05T07:15:29.198Z,14.60
2022-10-05T07:18:09.268Z,14.66
2022-10-05T07:20:49.071Z,14.62
2022-10-05T07:23:29.370Z,14.61
2022-10-05T07:26:04.621Z,14.75
2022-10-05T07:28:39.013Z,14.85
2022-10-05T07:31:13.240Z,14.90
2022-10-05T07:33:46.516Z,14.89
2022-10-05T07:36:22.599Z,14.81
2022-10-05T07:38:58.845Z,14.77
2022-10-05T07:41:36.954Z,14.82
2022-10-05T07:44:13.254Z,14.81
2022-10-05T07:46:50.720Z,14.84
2022-10-05T07:49:26.432Z,14.83
2022-10-05T07:51:59.504Z,14.87
2022-10-05T07:54:34.283Z,14.92
2022-10-05T07:57:13.041Z,15.09
2022-10-05T07:59:47.941Z,15.17
2022-10-05T08:02:25.884Z,15.40
2022-10-05T08:05:00.167Z,15.40
2022-10-05T08:07:31.354Z,15.54
2022-10-05T08:10:13.756Z,15.54
2022-10-05T08:12:51.816Z,15.71
2022-10-05T08:15:23.197Z,15.82
2022-10-05T08:17:55.040Z,15.83
2022-10-05T08:20:32.061Z,15.92
2022-10-05T08:23:05.211Z,15.80
2022-10-05T08:25:41.744Z,15.95
2022-10-05T08:28:17.333Z,15.83
2022-10-05T08:30:56.967Z,15.74
2022-10-05T08:33:26.740Z,15.87
2022-10-05T08:36:03.350Z,15.93
2022-10-05T08:38:33.605Z,16.06
2022-10-05T08:41:29.277Z,16.02
2022-10-05T08:44:48.053Z,16.08
2022-10-05T08:47:26.225Z,16.28
2022-10-05T08:50:17.801Z,16.31
2022-10-05T08:53:17.416Z,16.17
2022-10-05T08:55:58.858Z,16.27
2022-10-05T08:59:08.933Z,16.19
2022-10-05T09:01:56.414Z,16.05
2022-10-05T09:04:41.698Z,16.03
2022-10-05T09:07:37.303Z,16.04
2022-10-05T09:10:26.194Z,16.02
2022-10-05T09:13:24.675Z,16.05
2022-10-05T09:16:24.632Z,16.02
2022-10-05T09:19:24.970Z,16.07
2022-10-05T09:21:57.437Z,16.04
2022-10-05T09:24:39.589Z,16.05
2022-10-05T09:27:12.617Z,15.99
2022-10-05T09:30:04.320Z,16.10
2022-10-05T09:33:19.705Z,15.99
2022-10-05T09:36:14.102Z,16.01
2022-10-05T09:39:09.307Z,16.19
2022-10-05T09:42:10.253Z,16.29
2022-10-05T09:45:15.565Z,16.35
2022-10-05T09:48:30.375Z,16.20
2022-10-05T09:51:48.481Z,16.36
2022-10-05T09:55:03.073Z,16.38
2022-10-05T09:58:06.187Z,16.40
2022-10-05T10:01:09.480Z,16.45
2022-10-05T10:04:34.618Z,16.40
2022-10-05T10:07:39.523Z,16.59
2022-10-05T10:10:46.901Z,16.48
2022-10-05T10:13:30.283Z,16.37
2022-10-05T10:16:11.774Z,16.45
2022-10-05T10:19:12.643Z,16.40
2022-10-05T10:22:10.119Z,16.61
2022-10-05T10:24:55.232Z,16.70
2022-10-05T10:27:36.608Z,16.91
2022-10-05T10:30:46.560Z,17.23
2022-10-05T10:33:36.333Z,17.29
2022-10-05T10:36:09.531Z,17.15
2022-10-05T10:38:39.971Z,17.14
2022-10-05T10:41:45.940Z,17.35
2022-10-05T10:45:00.779Z,17.50
2022-10-05T10:47:49.189Z,17.38
2022-10-05T10:51:06.449Z,17.49
2022-10-05T10:54:12.996Z,17.50
2022-10-05T10:56:58.894Z,17.70
2022-10-05T10:59:55.783Z,17.43
2022-10-05T11:02:36.088Z,17.52
2022-10-05T11:05:48.020Z,17.87
2022-10-05T11:08:45.814Z,17.93
2022-10-05T11:12:10.216Z,17.77
2022-10-05T11:15:18.299Z,18.07
2022-10-05T11:18:15.206Z,18.28
2022-10-05T11:21:08.864Z,18.58
2022-10-05T11:24:08.512Z,18.42
2022-10-05T11:26:53.801Z,18.37
2022-10-05T11:29:55.707Z,18.37
2022-10-05T11:33:19.165Z,18.63
2022-10-05T11:36:11.601Z,18.49
2022-10-05T11:39:10.037Z,18.92
2022-10-05T11:42:11.604Z,18.75
2022-10-05T11:45:16.352Z,18.80
2022-10-05T11:48:01.961Z,18.42
2022-10-05T11:50:35.197Z,18.58
2022-10-05T11:53:10.955Z,19.38
2022-10-05T11:55:45.478Z,19.41
2022-10-05T11:58:19.964Z,19.18
2022-10-05T12:00:56.825Z,19.40
2022-10-05T12:03:41.539Z,19.53
2022-10-05T12:06:41.057Z,19.39
2022-10-05T12:09:22.500Z,19.53
2022-10-05T12:12:03.249Z,19.76
2022-10-05T12:14:41.115Z,19.58
2022-10-05T12:17:20.172Z,19.43
2022-10-05T12:19:51.510Z,19.82
2022-10-05T12:22:22.534Z,19.90
2022-10-05T12:25:17.859Z,19.82
2022-10-05T12:27:49.599Z,19.89
2022-10-05T12:30:25.466Z,19.85
2022-10-05T12:33:02.459Z,19.38
2022-10-05T12:35:50.425Z,20.01
2022-10-05T12:38:26.523Z,20.34
2022-10-05T12:41:03.088Z,21.12
2022-10-05T12:43:42.273Z,21.12
2022-10-05T12:46:21.653Z,21.11
2022-10-05T12:49:05.187Z,21.28
2022-10-05T12:51:40.821Z,21.36
2022-10-05T12:54:20.564Z,21.61
2022-10-05T12:56:53.932Z,21.91
2022-10-05T12:59:34.183Z,21.79
2022-10-05T13:02:10.446Z,21.44
2022-10-05T13:04:43.640Z,21.00
2022-10-05T13:07:34.372Z,21.25
2022-10-05T13:10:14.865Z,21.25
2022-10-05T13:12:48.458Z,20.46
2022-10-05T13:15:23.872Z,21.42
2022-10-05T13:18:02.844Z,22.09
2022-10-05T13:20:34.770Z,21.69
2022-10-05T13:23:09.633Z,21.06
2022-10-05T13:25:43.461Z,21.13
2022-10-05T13:28:17.049Z,20.94
2022-10-05T13:30:59.323Z,21.87
2022-10-05T13:33:38.937Z,21.63
2022-10-05T13:36:13.546Z,20.65
2022-10-05T13:38:51.780Z,20.18
2022-10-05T13:41:28.686Z,20.33
2022-10-05T13:44:07.282Z,20.50
2022-10-05T13:46:44.749Z,21.00
2022-10-05T13:49:21.196Z,20.18
2022-10-05T13:51:56.801Z,19.97
2022-10-05T13:54:32.213Z,19.81
2022-10-05T13:57:11.024Z,19.62
2022-10-05T13:59:45.364Z,19.55
2022-10-05T14:02:20.652Z,19.50
2022-10-05T14:04:49.667Z,19.50
2022-10-05T14:07:30.039Z,19.48
2022-10-05T14:09:58.662Z,19.34
2022-10-05T14:12:27.338Z,19.33
2022-10-05T14:14:56.101Z,19.31
2022-10-05T14:17:40.672Z,19.28
2022-10-05T14:20:21.555Z,19.30
2022-10-05T14:22:52.952Z,19.21
2022-10-05T14:25:20.866Z,19.26
2022-10-05T14:27:51.813Z,19.41
2022-10-05T14:30:22.408Z,19.48
2022-10-05T14:32:53.486Z,19.42
2022-10-05T14:35:21.207Z,19.44
2022-10-05T14:37:54.754Z,19.33
2022-10-05T14:40:25.975Z,19.39
2022-10-05T14:42:53.961Z,19.48
2022-10-05T14:45:23.043Z,19.51
2022-10-05T14:47:54.441Z,19.43
2022-10-05T14:50:24.300Z,19.47
2022-10-05T14:53:04.373Z,19.45
2022-10-05T14:55:59.947Z,19.40
2022-10-05T14:58:55.731Z,19.63
2022-10-05T15:01:27.209Z,19.87
2022-10-05T15:04:08.297Z,19.96
2022-10-05T15:06:38.364Z,20.11
2022-10-05T15:09:24.675Z,20.11
2022-10-05T15:11:55.726Z,19.96
2022-10-05T15:14:27.015Z,19.99
2022-10-05T15:16:59.699Z,20.18
2022-10-05T15:19:42.362Z,19.90
2022-10-05T15:22:22.999Z,19.80
2022-10-05T15:25:00.371Z,19.95
2022-10-05T15:27:35.150Z,19.68
2022-10-05T15:30:08.530Z,19.98
2022-10-05T15:32:47.832Z,20.38
2022-10-05T15:35:36.187Z,20.97
2022-10-05T15:38:13.470Z,20.87
2022-10-05T15:40:46.365Z,20.82
2022-10-05T15:43:17.823Z,20.46
2022-10-05T15:45:55.603Z,20.33
2022-10-05T15:48:28.640Z,20.05
2022-10-05T15:51:08.054Z,20.55
2022-10-05T15:53:43.262Z,20.60
2022-10-05T15:56:19.198Z,20.61
2022-10-05T15:58:52.931Z,20.69
2022-10-05T16:01:27.806Z,20.67
2022-10-05T16:04:03.954Z,20.54
2022-10-05T16:06:42.140Z,19.99
2022-10-05T16:09:22.456Z,20.18
2022-10-05T16:12:02.095Z,20.25
2022-10-05T16:14:48.432Z,20.11
2022-10-05T16:17:28.480Z,19.95
2022-10-05T16:20:08.524Z,19.50
2022-10-05T16:22:43.708Z,19.30
2022-10-05T16:25:19.647Z,19.01
2022-10-05T16:28:04.557Z,18.99
2022-10-05T16:30:45.192Z,18.88
2022-10-05T16:33:18.453Z,18.84
2022-10-05T16:35:54.760Z,18.90
2022-10-05T16:38:32.531Z,18.77
2022-10-05T16:41:06.181Z,18.66
2022-10-05T16:43:44.569Z,18.60
2022-10-05T16:46:22.476Z,18.61
2022-10-05T16:48:58.639Z,18.59
2022-10-05T16:51:31.233Z,18.60
2022-10-05T16:54:10.622Z,18.64
2022-10-05T16:56:42.071Z,18.61
2022-10-05T16:59:41.078Z,18.46
2022-10-05T17:02:14.987Z,18.51
2022-10-05T17:04:55.332Z,18.44
2022-10-05T17:07:36.264Z,18.46
2022-10-05T17:10:48.417Z,18.33
2022-10-05T17:13:30.506Z,18.29
2022-10-05T17:16:07.900Z,18.39
2022-10-05T17:19:20.605Z,18.32
2022-10-05T17:21:56.282Z,18.24
2022-10-05T17:24:54.903Z,18.27
2022-10-05T17:27:33.522Z,18.29
2022-10-05T17:30:37.227Z,18.22
2022-10-05T17:33:19.537Z,18.19
2022-10-05T17:35:55.895Z,18.04
2022-10-05T17:38:40.654Z,18.00
2022-10-05T17:41:19.851Z,18.02
2022-10-05T17:44:22.898Z,18.02
2022-10-05T17:46:52.563Z,17.96
2022-10-05T17:49:25.468Z,17.98
2022-10-05T17:51:58.752Z,18.00
2022-10-05T17:54:29.770Z,18.01
2022-10-05T17:57:20.344Z,17.99
2022-10-05T17:59:59.043Z,17.94
2022-10-05T18:02:40.518Z,17.92
2022-10-05T18:05:21.764Z,17.95
2022-10-05T18:08:28.940Z,17.91
2022-10-05T18:11:12.269Z,17.88
2022-10-05T18:13:43.723Z,17.82
2022-10-05T18:16:13.377Z,17.72
2022-10-05T18:18:56.848Z,17.65
2022-10-05T18:21:31.594Z,17.62
2022-10-05T18:24:03.167Z,17.58
2022-10-05T18:26:39.285Z,17.61
2022-10-05T18:29:22.138Z,17.65
2022-10-05T18:31:59.369Z,17.75
2022-10-05T18:34:34.169Z,17.77
2022-10-05T18:37:21.050Z,17.85
2022-10-05T18:40:08.918Z,17.82
2022-10-05T18:42:43.706Z,17.80
2022-10-05T18:45:23.566Z,17.86
2022-10-05T18:48:05.859Z,17.85
2022-10-05T18:50:40.560Z,17.91
2022-10-05T18:53:20.488Z,17.93
2022-10-05T18:55:55.758Z,17.89
2022-10-05T18:58:31.875Z,17.95
2022-10-05T19:01:30.418Z,17.90
2022-10-05T19:04:09.042Z,17.95
2022-10-05T19:06:50.124Z,17.95
2022-10-05T19:09:33.706Z,17.91
2022-10-05T19:12:10.589Z,18.05
2022-10-05T19:14:48.620Z,18.03
2022-10-05T19:17:23.904Z,18.13
2022-10-05T19:20:15.205Z,18.13
2022-10-05T19:22:54.581Z,18.19
2022-10-05T19:25:37.199Z,18.16
2022-10-05T19:28:15.146Z,18.16
2022-10-05T19:30:53.790Z,18.25
2022-10-05T19:33:32.162Z,18.29
2022-10-05T19:36:14.443Z,18.28
2022-10-05T19:38:53.536Z,18.27
2022-10-05T19:41:29.313Z,18.39
2022-10-05T19:44:11.714Z,18.35
2022-10-05T19:46:57.407Z,18.37
2022-10-05T19:49:42.028Z,18.41
2022-10-05T19:52:19.369Z,18.41
2022-10-05T19:54:47.187Z,18.41
2022-10-05T19:57:17.016Z,18.43
2022-10-05T19:59:47.873Z,18.41
2022-10-05T20:02:17.096Z,18.41
2022-10-05T20:04:46.583Z,18.46
2022-10-05T20:07:17.664Z,18.46
2022-10-05T20:09:55.890Z,18.46
2022-10-05T20:12:49.118Z,18.52
2022-10-05T20:15:18.679Z,18.42
2022-10-05T20:17:45.885Z,18.37
2022-10-05T20:20:35.304Z,18.40
2022-10-05T20:23:23.948Z,18.33
2022-10-05T20:25:52.141Z,18.29
2022-10-05T20:28:30.701Z,18.26
2022-10-05T20:30:58.482Z,18.21
2022-10-05T20:33:25.973Z,18.21
2022-10-05T20:35:55.230Z,18.15
2022-10-05T20:38:23.913Z,18.10
2022-10-05T20:40:51.174Z,18.09
2022-10-05T20:43:18.366Z,18.13
2022-10-05T20:45:45.597Z,18.13
2022-10-05T20:48:14.024Z,18.16
2022-10-05T20:50:41.249Z,18.15
2022-10-05T20:53:11.714Z,18.10
2022-10-05T20:55:40.549Z,18.07
2022-10-05T20:58:07.855Z,18.08
2022-10-05T21:00:35.168Z,18.03
2022-10-05T21:03:02.497Z,18.03
2022-10-05T21:05:29.925Z,18.03
2022-10-05T21:07:57.224Z,18.00
2022-10-05T21:10:24.466Z,17.99
2022-10-05T21:12:53.011Z,17.99
2022-10-05T21:15:20.291Z,17.97
2022-10-05T21:17:47.546Z,18.03
2022-10-05T21:20:14.900Z,18.00
2022-10-05T21:22:42.230Z,17.99
2022-10-05T21:25:09.632Z,17.91
2022-10-05T21:27:36.912Z,17.89
2022-10-05T21:30:06.911Z,17.98
2022-10-05T21:32:34.180Z,17.98
2022-10-05T21:35:01.435Z,18.03
2022-10-05T21:37:28.581Z,18.00
2022-10-05T21:39:55.985Z,18.01
2022-10-05T21:42:23.666Z,18.09
2022-10-05T21:44:50.917Z,18.10
2022-10-05T21:47:19.542Z,18.13
2022-10-05T21:49:46.799Z,18.13
2022-10-05T21:52:14.029Z,18.13
2022-10-05T21:54:41.234Z,18.17
2022-10-05T21:57:11.454Z,18.18
2022-10-05T21:59:40.175Z,18.17
2022-10-05T22:02:07.455Z,18.18
2022-10-05T22:04:36.140Z,18.16
2022-10-05T22:07:14.023Z,18.22
2022-10-05T22:09:41.256Z,18.21
2022-10-05T22:12:08.442Z,18.21
2022-10-05T22:14:35.616Z,18.18
2022-10-05T22:17:02.920Z,17.82
2022-10-05T22:19:30.114Z,17.08
2022-10-05T22:21:58.686Z,15.90
2022-10-05T22:24:25.891Z,15.45
2022-10-05T22:26:53.220Z,15.19
2022-10-05T22:29:21.045Z,14.97
2022-10-05T22:31:49.154Z,14.80
2022-10-05T22:34:16.885Z,14.64
2022-10-05T22:36:44.213Z,14.55
2022-10-05T22:39:13.006Z,14.52
2022-10-05T22:41:40.204Z,14.58
2022-10-05T22:44:07.495Z,14.60
2022-10-05T22:46:34.803Z,14.58
2022-10-05T22:49:01.975Z,14.59
2022-10-05T22:51:29.221Z,14.68
2022-10-05T22:53:56.422Z,14.71
2022-10-05T22:56:25.061Z,14.68
2022-10-05T22:58:52.553Z,14.77
2022-10-05T23:01:20.275Z,14.80
2022-10-05T23:03:47.932Z,14.86
2022-10-05T23:06:16.750Z,14.99
2022-10-05T23:08:44.738Z,15.00
2022-10-05T23:11:14.779Z,15.00
2022-10-05T23:13:43.757Z,15.03
2022-10-05T23:16:12.897Z,15.07
2022-10-05T23:18:40.427Z,15.06
2022-10-05T23:21:08.995Z,15.03
2022-10-05T23:23:37.188Z,15.07
2022-10-05T23:26:06.202Z,15.04
2022-10-05T23:28:34.126Z,14.99
2022-10-05T23:31:05.110Z,15.01
2022-10-05T23:33:33.104Z,15.01
2022-10-05T23:36:01.231Z,14.98
2022-10-05T23:38:29.187Z,14.96
2022-10-05T23:40:56.839Z,14.84
2022-10-05T23:43:24.518Z,14.85
2022-10-05T23:45:51.732Z,14.85
2022-10-05T23:48:20.629Z,14.81
2022-10-05T23:50:49.229Z,14.79
2022-10-05T23:53:17.222Z,14.75
2022-10-05T23:55:44.782Z,14.80
2022-10-05T23:58:12.089Z,14.85
